createdAt,value
2017-04-27T00:01:00.160Z,1013.39
2017-04-27T00:02:00.796Z,1013.43
2017-04-27T00:03:01.439Z,1013.52
2017-04-27T00:04:02.081Z,1013.46
2017-04-27T00:05:02.872Z,1013.51
2017-04-27T00:06:03.512Z,1013.45
2017-04-27T00:07:04.154Z,1013.52
2017-04-27T00:08:04.794Z,1013.50
2017-04-27T00:09:05.439Z,1013.37
2017-04-27T00:10:06.082Z,1013.48
2017-04-27T00:11:06.725Z,1013.52
2017-04-27T00:12:07.364Z,1013.46
2017-04-27T00:13:08.005Z,1013.46
2017-04-27T00:14:08.999Z,1013.47
2017-04-27T00:15:09.638Z,1013.49
2017-04-27T00:16:10.283Z,1013.53
2017-04-27T00:17:10.922Z,1013.45
2017-04-27T00:18:11.566Z,1013.58
2017-04-27T00:19:12.207Z,1013.52
2017-04-27T00:20:12.849Z,1013.57
2017-04-27T00:21:13.491Z,1013.54
2017-04-27T00:22:14.584Z,1013.54
2017-04-27T00:23:15.227Z,1013.55
2017-04-27T00:24:15.863Z,1013.51
2017-04-27T00:25:16.504Z,1013.52
2017-04-27T00:26:17.141Z,1013.59
2017-04-27T00:27:17.787Z,1013.61
2017-04-27T00:28:18.423Z,1013.65
2017-04-27T00:29:19.069Z,1013.63
2017-04-27T00:30:20.162Z,1013.63
2017-04-27T00:31:20.802Z,1013.63
2017-04-27T00:32:21.446Z,1013.65
2017-04-27T00:33:22.100Z,1013.68
2017-04-27T00:34:22.725Z,1013.73
2017-04-27T00:35:23.425Z,1013.63
2017-04-27T00:36:24.067Z,1013.72
2017-04-27T00:37:24.710Z,1013.69
2017-04-27T00:38:25.549Z,1013.71
2017-04-27T00:39:26.190Z,1013.75
2017-04-27T00:40:26.831Z,1013.73
2017-04-27T00:41:27.475Z,1013.80
2017-04-27T00:42:28.113Z,1013.78
2017-04-27T00:43:28.753Z,1013.73
2017-04-27T00:44:29.395Z,1013.73
2017-04-27T00:45:30.037Z,1013.75
2017-04-27T00:46:30.879Z,1013.72
2017-04-27T00:47:31.519Z,1013.75
2017-04-27T00:48:32.159Z,1013.78
2017-04-27T00:49:32.805Z,1013.74
2017-04-27T00:50:33.504Z,1013.72
2017-04-27T00:51:34.143Z,1013.80
2017-04-27T00:52:34.782Z,1013.81
2017-04-27T00:53:35.425Z,1013.78
2017-04-27T00:54:36.019Z,1013.78
2017-04-27T00:55:36.959Z,1013.72
2017-04-27T00:56:37.600Z,1013.76
2017-04-27T00:57:38.240Z,1013.78
2017-04-27T00:58:38.881Z,1013.69
2017-04-27T00:59:39.525Z,1013.71
2017-04-27T01:00:40.165Z,1013.75
2017-04-27T01:01:40.803Z,1013.83
2017-04-27T01:02:41.439Z,1013.76
2017-04-27T01:03:42.230Z,1013.76
2017-04-27T01:04:42.874Z,1013.84
2017-04-27T01:05:43.514Z,1013.81
2017-04-27T01:06:44.150Z,1013.82
2017-04-27T01:07:44.790Z,1013.87
2017-04-27T01:08:45.434Z,1013.78
2017-04-27T01:09:46.074Z,1013.79
2017-04-27T01:10:46.716Z,1013.85
2017-04-27T01:11:47.556Z,1013.77
2017-04-27T01:12:48.199Z,1013.83
2017-04-27T01:13:48.846Z,1013.81
2017-04-27T01:14:49.484Z,1013.77
2017-04-27T01:15:50.129Z,1013.79
2017-04-27T01:16:50.771Z,1013.80
2017-04-27T01:17:51.410Z,1013.72
2017-04-27T01:18:52.058Z,1013.84
2017-04-27T01:19:52.894Z,1013.83
2017-04-27T01:20:53.535Z,1013.86
2017-04-27T01:21:54.181Z,1013.88
2017-04-27T01:22:54.875Z,1013.91
2017-04-27T01:23:55.515Z,1013.93
2017-04-27T01:24:56.156Z,1013.88
2017-04-27T01:25:56.797Z,1013.86
2017-04-27T01:26:57.433Z,1013.89
2017-04-27T01:27:58.078Z,1013.91
2017-04-27T01:28:58.921Z,1013.89
2017-04-27T01:29:59.561Z,1013.90
2017-04-27T01:31:00.202Z,1013.90
2017-04-27T01:32:07.596Z,1013.91
2017-04-27T01:33:08.238Z,1013.90
2017-04-27T01:34:08.879Z,1013.90
2017-04-27T01:35:09.523Z,1013.82
2017-04-27T01:36:10.163Z,1013.90
2017-04-27T01:37:10.956Z,1013.85
2017-04-27T01:38:11.592Z,1013.82
2017-04-27T01:39:12.230Z,1013.83
2017-04-27T01:40:12.872Z,1013.85
2017-04-27T01:41:13.512Z,1013.94
2017-04-27T01:42:14.153Z,1013.88
2017-04-27T01:43:14.795Z,1013.90
2017-04-27T01:44:15.434Z,1013.89
2017-04-27T01:45:16.275Z,1013.93
2017-04-27T01:46:16.914Z,1013.88
2017-04-27T01:47:17.560Z,1013.91
2017-04-27T01:48:18.197Z,1013.97
2017-04-27T01:49:18.842Z,1013.98
2017-04-27T01:50:19.482Z,1013.91
2017-04-27T01:51:20.124Z,1013.90
2017-04-27T01:52:20.764Z,1013.97
2017-04-27T01:53:21.807Z,1013.97
2017-04-27T01:54:22.446Z,1013.91
2017-04-27T01:55:23.086Z,1013.98
2017-04-27T01:56:23.728Z,1013.88
2017-04-27T01:57:24.371Z,1013.94
2017-04-27T01:58:25.008Z,1013.95
2017-04-27T01:59:25.656Z,1013.98
2017-04-27T02:00:26.297Z,1013.99
2017-04-27T02:01:27.139Z,1013.95
2017-04-27T02:02:27.777Z,1013.93
2017-04-27T02:03:28.419Z,1014.01
2017-04-27T02:04:29.060Z,1013.91
2017-04-27T02:05:29.702Z,1014.08
2017-04-27T02:06:30.345Z,1014.08
2017-04-27T02:07:30.982Z,1014.05
2017-04-27T02:08:31.622Z,1014.01
2017-04-27T02:09:32.266Z,1014.09
2017-04-27T02:10:33.106Z,1013.99
2017-04-27T02:11:33.752Z,1014.01
2017-04-27T02:12:34.390Z,1014.02
2017-04-27T02:13:35.028Z,1014.07
2017-04-27T02:14:35.668Z,1013.98
2017-04-27T02:15:36.311Z,1014.06
2017-04-27T02:16:36.953Z,1014.06
2017-04-27T02:17:37.596Z,1014.07
2017-04-27T02:18:38.435Z,1014.04
2017-04-27T02:19:39.075Z,1014.01
2017-04-27T02:20:39.715Z,1014.13
2017-04-27T02:21:40.357Z,1014.04
2017-04-27T02:22:41.000Z,1014.08
2017-04-27T02:23:41.642Z,1014.06
2017-04-27T02:24:42.281Z,1013.96
2017-04-27T02:25:42.923Z,1014.03
2017-04-27T02:26:43.712Z,1013.98
2017-04-27T02:27:44.349Z,1013.98
2017-04-27T02:28:44.990Z,1013.95
2017-04-27T02:29:45.631Z,1014.03
2017-04-27T02:30:46.274Z,1014.01
2017-04-27T02:31:46.915Z,1014.00
2017-04-27T02:32:47.557Z,1014.05
2017-04-27T02:33:48.197Z,1014.00
2017-04-27T02:34:49.290Z,1014.00
2017-04-27T02:35:49.931Z,1014.01
2017-04-27T02:36:50.571Z,1014.01
2017-04-27T02:37:51.209Z,1013.98
2017-04-27T02:38:51.844Z,1013.97
2017-04-27T02:39:52.487Z,1013.99
2017-04-27T02:40:53.130Z,1014.01
2017-04-27T02:41:53.772Z,1014.04
2017-04-27T02:42:54.862Z,1014.06
2017-04-27T02:43:55.503Z,1014.00
2017-04-27T02:44:56.144Z,1014.00
2017-04-27T02:45:56.785Z,1014.04
2017-04-27T02:46:57.425Z,1014.02
2017-04-27T02:47:58.068Z,1014.01
2017-04-27T02:48:58.709Z,1014.01
2017-04-27T02:49:59.350Z,1013.96
2017-04-27T02:50:59.992Z,1014.00
2017-04-27T02:52:00.833Z,1013.96
2017-04-27T02:53:01.474Z,1014.02
2017-04-27T02:54:02.115Z,1013.94
2017-04-27T02:55:02.755Z,1013.93
2017-04-27T02:56:03.396Z,1014.08
2017-04-27T02:57:04.039Z,1013.92
2017-04-27T02:58:04.683Z,1014.03
2017-04-27T02:59:05.319Z,1014.07
2017-04-27T03:00:06.109Z,1014.13
2017-04-27T03:01:06.752Z,1014.12
2017-04-27T03:02:07.392Z,1014.15
2017-04-27T03:03:08.031Z,1014.16
2017-04-27T03:04:08.679Z,1014.13
2017-04-27T03:05:09.636Z,1014.10
2017-04-27T03:06:10.275Z,1014.16
2017-04-27T03:07:10.915Z,1014.11
2017-04-27T03:08:11.752Z,1014.04
2017-04-27T03:09:12.400Z,1014.05
2017-04-27T03:10:13.042Z,1014.12
2017-04-27T03:11:13.682Z,1014.13
2017-04-27T03:12:14.319Z,1014.11
2017-04-27T03:13:14.958Z,1014.10
2017-04-27T03:14:15.600Z,1014.21
2017-04-27T03:15:16.242Z,1014.15
2017-04-27T03:16:17.085Z,1014.24
2017-04-27T03:17:17.727Z,1014.10
2017-04-27T03:18:18.366Z,1014.15
2017-04-27T03:19:19.006Z,1014.08
2017-04-27T03:20:19.648Z,1014.10
2017-04-27T03:21:20.289Z,1014.15
2017-04-27T03:22:20.932Z,1014.12
2017-04-27T03:23:21.570Z,1014.09
2017-04-27T03:24:22.211Z,1014.18
2017-04-27T03:25:23.051Z,1014.16
2017-04-27T03:26:23.691Z,1014.10
2017-04-27T03:27:24.334Z,1014.08
2017-04-27T03:28:24.973Z,1014.09
2017-04-27T03:29:25.613Z,1014.14
2017-04-27T03:30:26.255Z,1014.14
2017-04-27T03:31:26.896Z,1014.19
2017-04-27T03:32:27.541Z,1014.25
2017-04-27T03:33:28.532Z,1014.24
2017-04-27T03:34:29.171Z,1014.18
2017-04-27T03:35:29.813Z,1014.20
2017-04-27T03:36:30.454Z,1014.20
2017-04-27T03:37:33.197Z,1014.19
2017-04-27T03:38:33.840Z,1014.22
2017-04-27T03:39:34.475Z,1014.22
2017-04-27T03:40:35.117Z,1014.23
2017-04-27T03:41:36.062Z,1014.27
2017-04-27T03:42:36.705Z,1014.29
2017-04-27T03:43:37.345Z,1014.24
2017-04-27T03:44:37.985Z,1014.23
2017-04-27T03:45:38.625Z,1014.21
2017-04-27T03:46:39.263Z,1014.31
2017-04-27T03:47:39.903Z,1014.33
2017-04-27T03:48:40.545Z,1014.30
2017-04-27T03:49:41.384Z,1014.20
2017-04-27T03:50:42.025Z,1014.18
2017-04-27T03:51:42.664Z,1014.18
2017-04-27T03:52:43.309Z,1014.21
2017-04-27T03:53:43.945Z,1014.19
2017-04-27T03:54:44.581Z,1014.28
2017-04-27T03:55:45.221Z,1014.28
2017-04-27T03:56:45.860Z,1014.29
2017-04-27T03:57:46.650Z,1014.32
2017-04-27T03:58:47.293Z,1014.33
2017-04-27T03:59:47.933Z,1014.33
2017-04-27T04:00:48.573Z,1014.29
2017-04-27T04:01:49.217Z,1014.35
2017-04-27T04:02:49.854Z,1014.31
2017-04-27T04:03:50.493Z,1014.27
2017-04-27T04:04:51.136Z,1014.27
2017-04-27T04:05:51.776Z,1014.30
2017-04-27T04:06:52.615Z,1014.30
2017-04-27T04:07:53.257Z,1014.30
2017-04-27T04:08:53.898Z,1014.30
2017-04-27T04:09:54.540Z,1014.31
2017-04-27T04:10:55.178Z,1014.34
2017-04-27T04:11:55.821Z,1014.30
2017-04-27T04:12:56.456Z,1014.26
2017-04-27T04:13:57.099Z,1014.20
2017-04-27T04:14:57.939Z,1014.27
2017-04-27T04:15:58.581Z,1014.29
2017-04-27T04:16:59.223Z,1014.27
2017-04-27T04:17:59.872Z,1014.29
2017-04-27T04:19:00.509Z,1014.23
2017-04-27T04:20:01.148Z,1014.28
2017-04-27T04:21:01.789Z,1014.34
2017-04-27T04:22:02.428Z,1014.30
2017-04-27T04:23:03.265Z,1014.29
2017-04-27T04:24:03.906Z,1014.29
2017-04-27T04:25:04.540Z,1014.31
2017-04-27T04:26:05.180Z,1014.26
2017-04-27T04:27:05.819Z,1014.28
2017-04-27T04:28:06.457Z,1014.30
2017-04-27T04:29:07.094Z,1014.21
2017-04-27T04:30:07.736Z,1014.19
2017-04-27T04:31:08.525Z,1014.35
2017-04-27T04:32:09.165Z,1014.28
2017-04-27T04:33:09.805Z,1014.25
2017-04-27T04:34:10.441Z,1014.27
2017-04-27T04:35:11.079Z,1014.28
2017-04-27T04:36:11.720Z,1014.27
2017-04-27T04:37:12.360Z,1014.28
2017-04-27T04:38:13.003Z,1014.33
2017-04-27T04:39:13.637Z,1014.39
2017-04-27T04:40:14.483Z,1014.35
2017-04-27T04:41:15.117Z,1014.35
2017-04-27T04:42:15.758Z,1014.31
2017-04-27T04:43:16.400Z,1014.30
2017-04-27T04:44:16.991Z,1014.28
2017-04-27T04:45:17.632Z,1014.27
2017-04-27T04:46:18.275Z,1014.31
2017-04-27T04:47:18.920Z,1014.19
2017-04-27T04:48:19.749Z,1014.32
2017-04-27T04:49:20.403Z,1014.26
2017-04-27T04:50:21.044Z,1014.29
2017-04-27T04:51:21.685Z,1014.32
2017-04-27T04:52:22.321Z,1014.30
2017-04-27T04:53:22.961Z,1014.28
2017-04-27T04:54:23.602Z,1014.32
2017-04-27T04:55:24.242Z,1014.31
2017-04-27T04:56:25.082Z,1014.24
2017-04-27T04:57:25.723Z,1014.30
2017-04-27T04:58:26.363Z,1014.33
2017-04-27T04:59:27.004Z,1014.32
2017-04-27T05:00:27.644Z,1014.32
2017-04-27T05:01:28.286Z,1014.29
2017-04-27T05:02:28.928Z,1014.33
2017-04-27T05:03:29.569Z,1014.42
2017-04-27T05:04:30.358Z,1014.37
2017-04-27T05:05:31.001Z,1014.30
2017-04-27T05:06:31.642Z,1014.35
2017-04-27T05:07:32.278Z,1014.43
2017-04-27T05:08:32.921Z,1014.46
2017-04-27T05:09:33.559Z,1014.43
2017-04-27T05:10:34.199Z,1014.45
2017-04-27T05:11:34.836Z,1014.44
2017-04-27T05:12:35.678Z,1014.50
2017-04-27T05:13:36.318Z,1014.46
2017-04-27T05:14:36.958Z,1014.54
2017-04-27T05:15:37.600Z,1014.51
2017-04-27T05:16:38.244Z,1014.55
2017-04-27T05:17:38.887Z,1014.48
2017-04-27T05:18:39.524Z,1014.53
2017-04-27T05:19:40.163Z,1014.51
2017-04-27T05:20:40.803Z,1014.57
2017-04-27T05:21:41.643Z,1014.56
2017-04-27T05:22:42.239Z,1014.58
2017-04-27T05:23:42.876Z,1014.73
2017-04-27T05:24:43.514Z,1014.62
2017-04-27T05:25:44.157Z,1014.66
2017-04-27T05:26:44.798Z,1014.70
2017-04-27T05:27:45.442Z,1014.76
2017-04-27T05:28:46.080Z,1014.74
2017-04-27T05:29:46.869Z,1014.79
2017-04-27T05:30:47.513Z,1014.76
2017-04-27T05:31:48.154Z,1014.80
2017-04-27T05:32:48.793Z,1014.80
2017-04-27T05:33:49.435Z,1014.80
2017-04-27T05:34:50.079Z,1014.82
2017-04-27T05:35:50.715Z,1014.84
2017-04-27T05:36:51.352Z,1014.82
2017-04-27T05:37:52.244Z,1014.87
2017-04-27T05:38:52.885Z,1014.91
2017-04-27T05:39:53.526Z,1014.88
2017-04-27T05:40:54.161Z,1014.90
2017-04-27T05:41:54.805Z,1014.91
2017-04-27T05:42:55.444Z,1014.91
2017-04-27T05:43:56.077Z,1015.00
2017-04-27T05:44:56.718Z,1014.89
2017-04-27T05:45:57.609Z,1014.97
2017-04-27T05:46:58.252Z,1015.02
2017-04-27T05:47:58.893Z,1015.03
2017-04-27T05:48:59.533Z,1015.00
2017-04-27T05:50:00.176Z,1015.05
2017-04-27T05:51:00.814Z,1015.04
2017-04-27T05:52:01.457Z,1015.00
2017-04-27T05:53:02.094Z,1015.03
2017-04-27T05:54:02.736Z,1015.10
2017-04-27T05:55:03.678Z,1015.11
2017-04-27T05:56:04.322Z,1015.15
2017-04-27T05:57:04.963Z,1015.08
2017-04-27T05:58:05.597Z,1015.21
2017-04-27T05:59:06.239Z,1015.13
2017-04-27T06:00:06.879Z,1015.24
2017-04-27T06:01:07.520Z,1015.21
2017-04-27T06:02:08.162Z,1015.21
2017-04-27T06:03:09.002Z,1015.34
2017-04-27T06:04:09.644Z,1015.27
2017-04-27T06:05:10.283Z,1015.28
2017-04-27T06:06:10.927Z,1015.40
2017-04-27T06:07:11.566Z,1015.41
2017-04-27T06:08:12.207Z,1015.41
2017-04-27T06:09:12.849Z,1015.37
2017-04-27T06:10:13.489Z,1015.45
2017-04-27T06:11:14.281Z,1015.46
2017-04-27T06:12:14.921Z,1015.55
2017-04-27T06:13:15.562Z,1015.44
2017-04-27T06:14:16.204Z,1015.61
2017-04-27T06:15:16.843Z,1015.63
2017-04-27T06:16:17.485Z,1015.67
2017-04-27T06:17:18.118Z,1015.68
2017-04-27T06:18:18.757Z,1015.71
2017-04-27T06:19:19.599Z,1015.75
2017-04-27T06:20:20.240Z,1015.74
2017-04-27T06:21:20.880Z,1015.72
2017-04-27T06:22:21.522Z,1015.76
2017-04-27T06:23:22.161Z,1015.82
2017-04-27T06:24:22.802Z,1015.73
2017-04-27T06:25:23.444Z,1015.73
2017-04-27T06:26:24.083Z,1015.78
2017-04-27T06:27:24.924Z,1015.76
2017-04-27T06:28:25.564Z,1015.86
2017-04-27T06:29:26.200Z,1015.79
2017-04-27T06:30:26.790Z,1015.87
2017-04-27T06:31:27.431Z,1015.81
2017-04-27T06:32:28.072Z,1015.84
2017-04-27T06:33:28.710Z,1015.80
2017-04-27T06:34:29.351Z,1015.92
2017-04-27T06:35:29.992Z,1015.83
2017-04-27T06:36:30.832Z,1015.86
2017-04-27T06:37:31.474Z,1015.79
2017-04-27T06:38:32.112Z,1015.83
2017-04-27T06:39:32.753Z,1015.81
2017-04-27T06:40:33.392Z,1015.83
2017-04-27T06:41:34.029Z,1015.91
2017-04-27T06:42:34.676Z,1015.89
2017-04-27T06:43:35.371Z,1015.83
2017-04-27T06:44:36.213Z,1015.88
2017-04-27T06:45:36.853Z,1015.88
2017-04-27T06:46:37.496Z,1015.89
2017-04-27T06:47:38.134Z,1015.82
2017-04-27T06:48:38.775Z,1015.94
2017-04-27T06:49:39.416Z,1015.86
2017-04-27T06:50:40.058Z,1015.89
2017-04-27T06:51:40.698Z,1015.96
2017-04-27T06:52:41.488Z,1015.94
2017-04-27T06:53:42.130Z,1015.96
2017-04-27T06:54:42.771Z,1016.05
2017-04-27T06:55:43.412Z,1016.08
2017-04-27T06:56:44.049Z,1015.97
2017-04-27T06:57:44.687Z,1016.07
2017-04-27T06:58:45.329Z,1016.07
2017-04-27T06:59:45.922Z,1016.06
2017-04-27T07:00:46.707Z,1016.07
2017-04-27T07:01:47.351Z,1016.16
2017-04-27T07:02:47.992Z,1016.12
2017-04-27T07:03:48.627Z,1016.12
2017-04-27T07:04:49.269Z,1016.18
2017-04-27T07:05:49.908Z,1016.17
2017-04-27T07:06:50.549Z,1016.15
2017-04-27T07:07:51.192Z,1016.14
2017-04-27T07:08:51.829Z,1016.22
2017-04-27T07:09:52.669Z,1016.17
2017-04-27T07:10:53.301Z,1016.13
2017-04-27T07:11:53.945Z,1016.22
2017-04-27T07:12:54.580Z,1016.26
2017-04-27T07:13:55.221Z,1016.24
2017-04-27T07:14:55.862Z,1016.18
2017-04-27T07:15:56.502Z,1016.25
2017-04-27T07:16:57.142Z,1016.33
2017-04-27T07:17:57.985Z,1016.33
2017-04-27T07:18:58.626Z,1016.27
2017-04-27T07:19:59.264Z,1016.27
2017-04-27T07:20:59.901Z,1016.28
2017-04-27T07:22:00.537Z,1016.27
2017-04-27T07:23:01.177Z,1016.35
2017-04-27T07:24:01.817Z,1016.27
2017-04-27T07:25:02.457Z,1016.33
2017-04-27T07:26:03.298Z,1016.39
2017-04-27T07:27:03.939Z,1016.36
2017-04-27T07:28:04.579Z,1016.37
2017-04-27T07:29:05.219Z,1016.33
2017-04-27T07:30:05.862Z,1016.40
2017-04-27T07:31:06.501Z,1016.38
2017-04-27T07:32:07.141Z,1016.41
2017-04-27T07:33:07.782Z,1016.37
2017-04-27T07:34:08.625Z,1016.45
2017-04-27T07:35:09.262Z,1016.37
2017-04-27T07:36:09.901Z,1016.39
2017-04-27T07:37:10.546Z,1016.37
2017-04-27T07:38:11.187Z,1016.41
2017-04-27T07:39:11.827Z,1016.41
2017-04-27T07:40:12.467Z,1016.48
2017-04-27T07:41:13.106Z,1016.36
2017-04-27T07:42:13.948Z,1016.42
2017-04-27T07:43:14.591Z,1016.50
2017-04-27T07:44:15.233Z,1016.35
2017-04-27T07:45:15.868Z,1016.46
2017-04-27T07:46:16.507Z,1016.42
2017-04-27T07:47:17.148Z,1016.34
2017-04-27T07:48:17.789Z,1016.39
2017-04-27T07:49:18.446Z,1016.47
2017-04-27T07:50:19.079Z,1016.47
2017-04-27T07:51:19.871Z,1016.42
2017-04-27T07:52:20.515Z,1016.36
2017-04-27T07:53:21.156Z,1016.37
2017-04-27T07:54:21.796Z,1016.49
2017-04-27T07:55:22.440Z,1016.47
2017-04-27T07:56:23.081Z,1016.43
2017-04-27T07:57:23.723Z,1016.32
2017-04-27T07:58:24.362Z,1016.43
2017-04-27T07:59:25.201Z,1016.30
2017-04-27T08:00:25.842Z,1016.44
2017-04-27T08:01:26.483Z,1016.41
2017-04-27T08:02:27.125Z,1016.40
2017-04-27T08:03:27.760Z,1016.43
2017-04-27T08:04:28.402Z,1016.41
2017-04-27T08:05:29.041Z,1016.44
2017-04-27T08:06:29.679Z,1016.40
2017-04-27T08:07:30.470Z,1016.52
2017-04-27T08:08:31.115Z,1016.39
2017-04-27T08:09:31.755Z,1016.51
2017-04-27T08:10:32.396Z,1016.47
2017-04-27T08:11:33.035Z,1016.45
2017-04-27T08:12:33.673Z,1016.43
2017-04-27T08:13:34.316Z,1016.41
2017-04-27T08:14:34.957Z,1016.43
2017-04-27T08:15:35.795Z,1016.48
2017-04-27T08:16:36.433Z,1016.49
2017-04-27T08:17:37.072Z,1016.43
2017-04-27T08:18:37.715Z,1016.47
2017-04-27T08:19:38.349Z,1016.53
2017-04-27T08:20:38.990Z,1016.43
2017-04-27T08:21:39.632Z,1016.46
2017-04-27T08:22:40.274Z,1016.37
2017-04-27T08:23:40.915Z,1016.53
2017-04-27T08:24:41.758Z,1016.51
2017-04-27T08:25:42.347Z,1016.49
2017-04-27T08:26:42.990Z,1016.55
2017-04-27T08:27:43.631Z,1016.57
2017-04-27T08:28:44.273Z,1016.63
2017-04-27T08:29:44.915Z,1016.54
2017-04-27T08:30:45.555Z,1016.58
2017-04-27T08:31:46.200Z,1016.53
2017-04-27T08:32:46.987Z,1016.53
2017-04-27T08:33:47.628Z,1016.48
2017-04-27T08:34:48.271Z,1016.56
2017-04-27T08:35:48.909Z,1016.57
2017-04-27T08:36:49.551Z,1016.57
2017-04-27T08:37:50.193Z,1016.56
2017-04-27T08:38:50.833Z,1016.61
2017-04-27T08:39:51.473Z,1016.48
2017-04-27T08:40:52.315Z,1016.60
2017-04-27T08:41:52.956Z,1016.61
2017-04-27T08:42:53.597Z,1016.62
2017-04-27T08:43:54.236Z,1016.62
2017-04-27T08:44:54.876Z,1016.67
2017-04-27T08:45:55.517Z,1016.57
2017-04-27T08:46:56.158Z,1016.66
2017-04-27T08:47:56.799Z,1016.64
2017-04-27T08:48:57.641Z,1016.59
2017-04-27T08:49:58.279Z,1016.62
2017-04-27T08:50:58.921Z,1016.64
2017-04-27T08:51:59.559Z,1016.64
2017-04-27T08:53:00.200Z,1016.70
2017-04-27T08:54:00.841Z,1016.70
2017-04-27T08:55:01.486Z,1016.61
2017-04-27T08:56:02.127Z,1016.64
2017-04-27T08:57:02.968Z,1016.65
2017-04-27T08:58:03.604Z,1016.64
2017-04-27T08:59:04.248Z,1016.66
2017-04-27T09:00:04.886Z,1016.70
2017-04-27T09:01:05.521Z,1016.63
2017-04-27T09:02:06.162Z,1016.69
2017-04-27T09:03:06.752Z,1016.63
2017-04-27T09:04:07.393Z,1016.67
2017-04-27T09:05:08.030Z,1016.73
2017-04-27T09:06:08.822Z,1016.67
2017-04-27T09:07:09.465Z,1016.70
2017-04-27T09:08:10.107Z,1016.58
2017-04-27T09:09:10.749Z,1016.55
2017-04-27T09:10:11.388Z,1016.62
2017-04-27T09:11:12.027Z,1016.62
2017-04-27T09:12:12.669Z,1016.64
2017-04-27T09:13:13.310Z,1016.62
2017-04-27T09:14:14.246Z,1016.66
2017-04-27T09:15:14.889Z,1016.58
2017-04-27T09:16:15.528Z,1016.60
2017-04-27T09:17:16.169Z,1016.67
2017-04-27T09:18:16.809Z,1016.64
2017-04-27T09:19:17.451Z,1016.64
2017-04-27T09:20:18.092Z,1016.58
2017-04-27T09:21:18.733Z,1016.58
2017-04-27T09:22:19.680Z,1016.59
2017-04-27T09:23:20.318Z,1016.61
2017-04-27T09:24:20.960Z,1016.59
2017-04-27T09:25:21.601Z,1016.62
2017-04-27T09:26:22.241Z,1016.57
2017-04-27T09:27:22.882Z,1016.59
2017-04-27T09:28:23.524Z,1016.50
2017-04-27T09:29:24.166Z,1016.57
2017-04-27T09:30:25.009Z,1016.54
2017-04-27T09:31:25.648Z,1016.52
2017-04-27T09:32:26.287Z,1016.65
2017-04-27T09:33:26.928Z,1016.59
2017-04-27T09:34:27.572Z,1016.56
2017-04-27T09:35:28.211Z,1016.49
2017-04-27T09:36:28.850Z,1016.55
2017-04-27T09:37:29.496Z,1016.41
2017-04-27T09:38:30.137Z,1016.52
2017-04-27T09:39:30.976Z,1016.51
2017-04-27T09:40:31.617Z,1016.54
2017-04-27T09:41:32.261Z,1016.46
2017-04-27T09:42:32.899Z,1016.42
2017-04-27T09:43:33.535Z,1016.46
2017-04-27T09:44:34.176Z,1016.50
2017-04-27T09:45:34.820Z,1016.38
2017-04-27T09:46:35.459Z,1016.47
2017-04-27T09:47:36.401Z,1016.45
2017-04-27T09:48:37.044Z,1016.44
2017-04-27T09:49:37.687Z,1016.50
2017-04-27T09:50:38.325Z,1016.51
2017-04-27T09:51:38.964Z,1016.40
2017-04-27T09:52:39.605Z,1016.54
2017-04-27T09:53:40.247Z,1016.47
2017-04-27T09:54:40.888Z,1016.49
2017-04-27T09:55:41.729Z,1016.51
2017-04-27T09:56:42.370Z,1016.52
2017-04-27T09:57:43.012Z,1016.53
2017-04-27T09:58:43.648Z,1016.48
2017-04-27T09:59:44.289Z,1016.51
2017-04-27T10:00:44.932Z,1016.43
2017-04-27T10:01:45.575Z,1016.48
2017-04-27T10:02:46.218Z,1016.48
2017-04-27T10:03:47.159Z,1016.46
2017-04-27T10:04:47.794Z,1016.35
2017-04-27T10:05:48.439Z,1016.38
2017-04-27T10:06:49.073Z,1016.33
2017-04-27T10:07:49.716Z,1016.36
2017-04-27T10:08:50.361Z,1016.35
2017-04-27T10:09:51.002Z,1016.44
2017-04-27T10:10:51.645Z,1016.42
2017-04-27T10:11:52.485Z,1016.38
2017-04-27T10:12:53.125Z,1016.43
2017-04-27T10:13:53.774Z,1016.37
2017-04-27T10:14:54.405Z,1016.44
2017-04-27T10:15:55.041Z,1016.41
2017-04-27T10:16:57.183Z,1016.43
2017-04-27T10:17:57.824Z,1016.46
2017-04-27T10:18:58.463Z,1016.45
2017-04-27T10:19:59.107Z,1016.32
2017-04-27T10:20:59.947Z,1016.48
2017-04-27T10:22:00.589Z,1016.41
2017-04-27T10:23:01.229Z,1016.46
2017-04-27T10:24:01.874Z,1016.42
2017-04-27T10:25:02.514Z,1016.42
2017-04-27T10:26:03.153Z,1016.44
2017-04-27T10:27:03.796Z,1016.44
2017-04-27T10:28:05.843Z,1016.37
2017-04-27T10:29:06.779Z,1016.37
2017-04-27T10:30:07.421Z,1016.42
2017-04-27T10:31:08.057Z,1016.47
2017-04-27T10:32:08.699Z,1016.37
2017-04-27T10:33:09.344Z,1016.42
2017-04-27T10:34:09.987Z,1016.46
2017-04-27T10:35:10.630Z,1016.49
2017-04-27T10:36:11.266Z,1016.51
2017-04-27T10:37:12.107Z,1016.56
2017-04-27T10:38:12.750Z,1016.47
2017-04-27T10:39:13.392Z,1016.55
2017-04-27T10:40:14.035Z,1016.41
2017-04-27T10:41:14.677Z,1016.43
2017-04-27T10:42:15.317Z,1016.46
2017-04-27T10:43:15.958Z,1016.43
2017-04-27T10:44:16.600Z,1016.43
2017-04-27T10:45:17.440Z,1016.43
2017-04-27T10:46:18.079Z,1016.48
2017-04-27T10:47:18.723Z,1016.50
2017-04-27T10:48:19.363Z,1016.45
2017-04-27T10:49:20.006Z,1016.47
2017-04-27T10:50:20.647Z,1016.37
2017-04-27T10:51:21.291Z,1016.43
2017-04-27T10:52:21.933Z,1016.48
2017-04-27T10:53:22.571Z,1016.44
2017-04-27T10:54:23.414Z,1016.41
2017-04-27T10:55:24.055Z,1016.47
2017-04-27T10:56:24.699Z,1016.34
2017-04-27T10:57:25.341Z,1016.42
2017-04-27T10:58:25.983Z,1016.38
2017-04-27T10:59:26.627Z,1016.36
2017-04-27T11:00:27.268Z,1016.34
2017-04-27T11:01:27.909Z,1016.32
2017-04-27T11:02:28.705Z,1016.33
2017-04-27T11:03:29.349Z,1016.28
2017-04-27T11:04:29.991Z,1016.36
2017-04-27T11:05:30.633Z,1016.26
2017-04-27T11:06:31.274Z,1016.28
2017-04-27T11:07:31.916Z,1016.32
2017-04-27T11:08:32.550Z,1016.31
2017-04-27T11:09:33.189Z,1016.28
2017-04-27T11:10:34.032Z,1016.32
2017-04-27T11:11:34.675Z,1016.23
2017-04-27T11:12:35.315Z,1016.27
2017-04-27T11:13:35.957Z,1016.27
2017-04-27T11:14:36.600Z,1016.22
2017-04-27T11:15:37.244Z,1016.28
2017-04-27T11:16:37.886Z,1016.16
2017-04-27T11:17:38.528Z,1016.20
2017-04-27T11:18:39.369Z,1016.18
2017-04-27T11:19:40.012Z,1016.16
2017-04-27T11:20:40.655Z,1016.15
2017-04-27T11:21:41.299Z,1016.17
2017-04-27T11:22:41.942Z,1016.18
2017-04-27T11:23:42.529Z,1016.06
2017-04-27T11:24:43.171Z,1016.17
2017-04-27T11:25:43.812Z,1016.10
2017-04-27T11:26:44.657Z,1016.13
2017-04-27T11:27:45.298Z,1016.17
2017-04-27T11:28:45.940Z,1016.19
2017-04-27T11:29:46.582Z,1016.17
2017-04-27T11:30:47.224Z,1016.18
2017-04-27T11:31:47.866Z,1016.09
2017-04-27T11:32:48.510Z,1016.13
2017-04-27T11:33:49.153Z,1016.09
2017-04-27T11:34:49.794Z,1016.12
2017-04-27T11:35:50.682Z,1016.10
2017-04-27T11:36:51.324Z,1015.99
2017-04-27T11:37:51.967Z,1016.04
2017-04-27T11:38:52.610Z,1016.02
2017-04-27T11:39:53.253Z,1016.01
2017-04-27T11:40:53.891Z,1016.06
2017-04-27T11:41:54.533Z,1016.00
2017-04-27T11:42:55.175Z,1016.05
2017-04-27T11:43:55.966Z,1016.02
2017-04-27T11:44:56.609Z,1015.93
2017-04-27T11:45:57.251Z,1016.01
2017-04-27T11:46:57.893Z,1015.98
2017-04-27T11:47:58.535Z,1015.91
2017-04-27T11:48:59.173Z,1015.94
2017-04-27T11:49:59.817Z,1016.00
2017-04-27T11:51:00.461Z,1015.91
2017-04-27T11:52:01.454Z,1015.91
2017-04-27T11:53:02.097Z,1015.90
2017-04-27T11:54:02.738Z,1015.96
2017-04-27T11:55:03.381Z,1015.89
2017-04-27T11:56:04.022Z,1015.87
2017-04-27T11:57:04.664Z,1015.86
2017-04-27T11:58:05.303Z,1015.89
2017-04-27T11:59:05.947Z,1015.78
2017-04-27T12:00:06.836Z,1015.84
2017-04-27T12:01:07.475Z,1015.75
2017-04-27T12:02:08.117Z,1015.77
2017-04-27T12:03:08.758Z,1015.70
2017-04-27T12:04:09.402Z,1015.74
2017-04-27T12:05:10.045Z,1015.76
2017-04-27T12:06:10.688Z,1015.73
2017-04-27T12:07:11.331Z,1015.65
2017-04-27T12:08:11.969Z,1015.63
2017-04-27T12:09:12.811Z,1015.73
2017-04-27T12:10:13.452Z,1015.70
2017-04-27T12:11:14.094Z,1015.57
2017-04-27T12:12:14.737Z,1015.66
2017-04-27T12:13:15.380Z,1015.71
2017-04-27T12:14:16.024Z,1015.70